Time;durP1;ratioP1;P1;durP2;ratioP2;P2;SDS_P1;SDS_P2;PMS_P1;PMS_P2;Temp;Humidity;BMP_temperature;BMP_pressure;BME280_temperature;BME280_humidity;BME280_pressure;Samples;Min_cycle;Max_cycle;Signal;HPM_P1;HPM_P2
2022/04/19 00:00:47;;;;;;;11.70;8.85;;;;;;;5.16;100.00;161916.41;5030165;28;20045;-57
2022/04/19 00:03:14;;;;;;;11.70;10.15;;;;;;;5.03;100.00;161882.75;5032339;28;20091;-57
2022/04/19 00:05:41;;;;;;;11.10;10.00;;;;;;;4.94;100.00;161858.59;5032154;28;20389;-57
2022/04/19 00:08:08;;;;;;;11.77;8.80;;;;;;;4.85;100.00;161834.38;5030699;28;20041;-57
2022/04/19 00:10:34;;;;;;;10.60;9.27;;;;;;;4.78;100.00;161816.88;5032083;28;20033;-57
2022/04/19 00:13:02;;;;;;;11.18;9.98;;;;;;;4.72;100.00;161800.75;5030471;28;20393;-57
2022/04/19 00:15:28;;;;;;;16.35;10.63;;;;;;;4.65;100.00;161783.28;5031463;28;20025;-57
2022/04/19 00:17:58;;;;;;;13.25;9.25;;;;;;;4.58;100.00;161764.44;5030385;28;20408;-57
2022/04/19 00:20:24;;;;;;;10.77;9.70;;;;;;;4.50;100.00;161742.97;5031771;28;20036;-57
2022/04/19 00:22:50;;;;;;;9.73;8.73;;;;;;;4.43;100.00;161725.47;5029877;28;20628;-58
2022/04/19 00:25:16;;;;;;;13.27;11.05;;;;;;;4.35;100.00;161705.31;5032200;28;20033;-57
2022/04/19 00:27:42;;;;;;;14.68;11.32;;;;;;;4.35;100.00;161705.31;5029933;28;20033;-57
2022/04/19 00:30:07;;;;;;;16.25;11.35;;;;;;;4.38;100.00;161712.03;5031572;28;20120;-57
2022/04/19 00:32:33;;;;;;;14.95;10.25;;;;;;;4.34;100.00;161702.63;5029283;28;20071;-57
2022/04/19 00:34:59;;;;;;;12.98;10.13;;;;;;;4.39;100.00;161716.06;5031780;28;20056;-57
2022/04/19 00:37:25;;;;;;;12.73;9.65;;;;;;;4.38;100.00;161712.03;5029596;28;20045;-57
2022/04/19 00:39:50;;;;;;;11.70;9.50;;;;;;;4.37;100.00;161710.66;5032148;28;20025;-58
2022/04/19 00:42:17;;;;;;;12.35;10.27;;;;;;;4.35;100.00;161705.31;5029671;28;20045;-57
2022/04/19 00:44:43;;;;;;;11.95;10.73;;;;;;;4.31;100.00;161694.53;5031592;28;20067;-57
2022/04/19 00:47:10;;;;;;;18.17;11.38;;;;;;;4.23;100.00;161674.41;5030172;28;20048;-57
2022/04/19 00:49:42;;;;;;;11.80;8.88;;;;;;;4.11;100.00;161643.47;5031395;28;20036;-57
2022/04/19 00:52:08;;;;;;;15.77;11.30;;;;;;;4.12;100.00;161646.19;5029384;28;20049;-57
2022/04/19 00:54:34;;;;;;;12.65;9.85;;;;;;;4.12;100.00;161646.19;5031297;28;20025;-57
2022/04/19 00:57:01;;;;;;;11.50;10.30;;;;;;;4.13;100.00;161647.50;5029418;28;20163;-57
2022/04/19 00:59:26;;;;;;;12.95;10.65;;;;;;;4.10;100.00;161640.78;5031104;28;20083;-57
2022/04/19 01:01:52;;;;;;;16.15;11.10;;;;;;;4.10;100.00;161639.41;5029427;28;20511;-57
2022/04/19 01:04:18;;;;;;;12.35;10.70;;;;;;;4.09;100.00;161638.09;5031326;28;20053;-57
2022/04/19 01:06:44;;;;;;;12.00;10.77;;;;;;;4.06;100.00;161628.69;5029196;28;20890;-57
2022/04/19 01:09:10;;;;;;;13.88;11.27;;;;;;;4.04;100.00;161623.28;5031308;28;20472;-57
2022/04/19 01:14:28;;;;;;;14.65;12.32;;;;;;;3.80;100.00;161562.84;5021890;28;20037;-57
2022/04/19 01:16:54;;;;;;;18.63;12.85;;;;;;;3.83;100.00;161569.56;5028459;28;20595;-57
2022/04/19 01:19:21;;;;;;;15.82;11.40;;;;;;;3.67;100.00;161527.91;5031018;28;20086;-57
2022/04/19 01:21:50;;;;;;;14.50;12.70;;;;;;;3.61;100.00;161511.81;5029072;28;20110;-57
2022/04/19 01:24:18;;;;;;;15.25;11.50;;;;;;;3.53;100.00;161490.31;5031054;28;20514;-56
2022/04/19 01:26:43;;;;;;;15.80;13.68;;;;;;;3.49;100.00;161482.22;5029340;28;20405;-56
2022/04/19 01:29:10;;;;;;;18.23;12.15;;;;;;;3.50;100.00;161483.53;5029760;28;20030;-56
2022/04/19 01:31:38;;;;;;;16.58;10.93;;;;;;;3.47;100.00;161476.84;5029601;28;20496;-56
2022/04/19 01:34:03;;;;;;;14.75;12.05;;;;;;;3.45;100.00;161471.50;5030936;28;20056;-56
2022/04/19 01:36:29;;;;;;;17.83;13.73;;;;;;;3.42;100.00;161463.41;5029181;28;20404;-56
2022/04/19 01:38:54;;;;;;;12.63;11.25;;;;;;;3.43;100.00;161466.09;5028517;28;20025;-56
2022/04/19 01:41:19;;;;;;;17.58;12.68;;;;;;;3.49;100.00;161482.22;5028872;28;20045;-57
2022/04/19 01:43:45;;;;;;;23.70;14.02;;;;;;;3.51;100.00;161484.91;5030248;28;20025;-57
2022/04/19 01:46:11;;;;;;;16.48;11.98;;;;;;;3.52;100.00;161487.59;5029279;28;20037;-56
2022/04/19 01:48:36;;;;;;;14.80;12.90;;;;;;;3.49;100.00;161482.22;5030658;28;20025;-56
2022/04/19 01:51:02;;;;;;;15.18;11.82;;;;;;;3.46;100.00;161474.13;5028928;28;20039;-57
2022/04/19 01:53:28;;;;;;;15.35;12.48;;;;;;;3.41;100.00;161460.72;5030812;28;20022;-57
2022/04/19 01:55:53;;;;;;;15.50;11.40;;;;;;;3.36;100.00;161447.31;5029305;28;20388;-57
2022/04/19 01:58:19;;;;;;;14.40;11.57;;;;;;;3.28;100.00;161425.81;5029992;28;20112;-55
2022/04/19 02:00:44;;;;;;;18.40;14.90;;;;;;;3.22;100.00;161409.69;5029559;28;20444;-57
2022/04/19 02:03:10;;;;;;;14.20;11.98;;;;;;;3.12;100.00;161385.50;5030663;28;20029;-57
2022/04/19 02:05:35;;;;;;;14.98;11.48;;;;;;;3.06;100.00;161369.41;5030371;28;20056;-57
2022/04/19 02:08:00;;;;;;;12.52;11.23;;;;;;;2.99;100.00;161350.59;5029350;28;20041;-57
2022/04/19 02:10:26;;;;;;;15.82;13.32;;;;;;;2.95;100.00;161339.81;5030475;28;20033;-57
2022/04/19 02:12:52;;;;;;;13.43;11.20;;;;;;;2.94;100.00;161337.19;5028998;28;20184;-57
2022/04/19 02:15:18;;;;;;;17.55;11.43;;;;;;;2.92;100.00;161331.78;5029961;28;20045;-57
2022/04/19 02:17:48;;;;;;;13.38;11.52;;;;;;;2.85;100.00;161314.31;5029135;28;20099;-57
2022/04/19 02:20:14;;;;;;;20.20;12.98;;;;;;;2.88;100.00;161321.03;5030740;28;20064;-57
2022/04/19 02:22:41;;;;;;;28.05;12.98;;;;;;;2.83;100.00;161310.31;5028171;28;20509;-57
2022/04/19 02:25:06;;;;;;;20.65;12.85;;;;;;;2.88;100.00;161321.03;5030573;28;20025;-57
2022/04/19 02:27:33;;;;;;;21.25;16.48;;;;;;;2.91;100.00;161329.09;5028776;28;20515;-57
2022/04/19 02:29:59;;;;;;;24.45;13.63;;;;;;;2.96;100.00;161342.50;5030113;28;20053;-57
2022/04/19 02:32:25;;;;;;;15.80;12.90;;;;;;;2.93;100.00;161334.50;5028491;28;20049;-57
2022/04/19 02:34:51;;;;;;;13.45;11.38;;;;;;;2.92;100.00;161333.13;5030567;28;20025;-59
2022/04/19 02:37:17;;;;;;;16.05;14.35;;;;;;;2.91;100.00;161329.09;5028458;28;20405;-57
2022/04/19 02:39:42;;;;;;;16.13;12.63;;;;;;;2.85;100.00;161315.69;5030777;28;20481;-57
2022/04/19 02:42:08;;;;;;;19.60;14.52;;;;;;;2.83;100.00;161308.97;5032165;28;20053;-57
2022/04/19 02:44:34;;;;;;;18.52;12.05;;;;;;;2.79;100.00;161299.53;5032208;28;20608;-56
2022/04/19 02:46:59;;;;;;;15.88;13.18;;;;;;;2.72;100.00;161280.75;5032171;28;20037;-56
2022/04/19 02:49:25;;;;;;;18.00;13.95;;;;;;;2.64;100.00;161260.63;5033889;28;20021;-56
2022/04/19 02:51:50;;;;;;;16.48;12.88;;;;;;;2.59;100.00;161245.84;5031781;28;20038;-57
2022/04/19 02:54:17;;;;;;;19.83;14.50;;;;;;;2.54;100.00;161235.13;5033289;28;20026;-56
2022/04/19 02:56:43;;;;;;;14.32;12.90;;;;;;;2.51;100.00;161225.72;5032278;28;20042;-56
2022/04/19 02:59:09;;;;;;;13.75;12.38;;;;;;;2.45;100.00;161210.94;5032087;28;20477;-56
2022/04/19 03:01:35;;;;;;;16.40;14.30;;;;;;;2.44;100.00;161208.25;5031917;28;20171;-56
2022/04/19 03:04:00;;;;;;;14.93;11.77;;;;;;;2.40;100.00;161197.53;5033127;28;20037;-57
2022/04/19 03:06:25;;;;;;;20.15;13.85;;;;;;;2.35;100.00;161185.44;5031344;28;20373;-57
2022/04/19 03:08:51;;;;;;;17.65;13.80;;;;;;;2.35;100.00;161184.06;5033156;28;20025;-56
2022/04/19 03:11:16;;;;;;;16.38;14.63;;;;;;;2.33;100.00;161178.75;5032219;28;20492;-57
2022/04/19 03:13:43;;;;;;;19.55;14.35;;;;;;;2.35;100.00;161184.06;5032656;28;20488;-56
2022/04/19 03:16:13;;;;;;;21.40;13.95;;;;;;;2.35;100.00;161184.06;5031795;28;20038;-57
2022/04/19 03:18:39;;;;;;;18.67;15.10;;;;;;;2.33;100.00;161180.06;5033349;28;20104;-56
2022/04/19 03:21:04;;;;;;;17.95;14.10;;;;;;;2.30;100.00;161172.03;5031414;28;20120;-55
2022/04/19 03:28:57;;;;;;;17.15;13.18;;;;;;;2.14;100.00;161130.41;5032280;28;20048;-57
2022/04/19 03:31:23;;;;;;;21.38;16.10;;;;;;;2.13;100.00;161127.72;5031669;28;20041;-57
2022/04/19 03:33:52;;;;;;;18.85;13.48;;;;;;;2.11;100.00;161122.38;5033119;28;20402;-57
2022/04/19 03:36:17;;;;;;;;;;;;;;;2.09;100.00;161117.00;5031551;28;20037;-57
2022/04/19 03:38:43;;;;;;;18.25;16.27;;;;;;;2.06;100.00;161108.91;5033166;28;20379;-56
2022/04/19 03:41:09;;;;;;;21.67;14.00;;;;;;;2.05;100.00;161106.22;5031383;28;20033;-56
2022/04/19 03:43:38;;;;;;;18.77;15.43;;;;;;;2.04;100.00;161104.91;5046802;28;20032;-56
2022/04/19 03:46:03;;;;;;;;;;;;;;;2.01;100.00;161095.50;5031497;28;20037;-57
2022/04/19 03:48:28;;;;;;;22.42;16.55;;;;;;;2.00;100.00;161092.81;5032458;28;19936;-57
2022/04/19 03:50:54;;;;;;;19.65;14.55;;;;;;;2.01;100.00;161095.50;5030308;28;20574;-56
2022/04/19 03:53:19;;;;;;;20.95;14.63;;;;;;;2.01;100.00;161095.50;5032408;28;20022;-57
2022/04/19 03:55:45;;;;;;;22.10;16.17;;;;;;;1.99;100.00;161090.13;5031008;28;20021;-56
2022/04/19 03:58:10;;;;;;;21.88;15.25;;;;;;;1.93;100.00;161075.41;5032116;28;20043;-57
2022/04/19 04:00:36;;;;;;;25.08;14.75;;;;;;;1.91;100.00;161070.03;5032162;28;20076;-58
2022/04/19 04:03:01;;;;;;;17.10;13.60;;;;;;;1.97;100.00;161084.81;5030885;28;20046;-57
2022/04/19 04:05:27;;;;;;;23.13;16.33;;;;;;;2.02;100.00;161098.19;5031794;28;20354;-58
2022/04/19 04:07:56;;;;;;;19.23;16.23;;;;;;;2.05;100.00;161107.59;5030540;28;20045;-58
2022/04/19 04:10:21;;;;;;;15.20;11.70;;;;;;;2.05;100.00;161107.59;5031989;28;20048;-55
2022/04/19 04:12:46;;;;;;;27.08;16.55;;;;;;;2.05;100.00;161106.22;5029625;28;20045;-56
2022/04/19 04:15:12;;;;;;;29.48;17.95;;;;;;;2.08;100.00;161114.31;5031751;28;20029;-56
2022/04/19 04:17:37;;;;;;;22.92;18.98;;;;;;;2.08;100.00;161112.97;5030055;28;20049;-56
2022/04/19 04:20:02;;;;;;;19.63;16.65;;;;;;;2.06;100.00;161108.91;5031190;28;20025;-56
2022/04/19 04:22:28;;;;;;;19.45;15.75;;;;;;;2.02;100.00;161098.19;5030365;28;20037;-55
2022/04/19 04:24:53;;;;;;;23.45;16.42;;;;;;;1.99;100.00;161090.13;5031699;28;20017;-56
2022/04/19 04:27:19;;;;;;;23.63;17.77;;;;;;;1.95;100.00;161079.41;5029833;28;20041;-56
2022/04/19 04:29:44;;;;;;;29.88;18.35;;;;;;;1.90;100.00;161068.66;5031273;28;20048;-56
2022/04/19 04:32:09;;;;;;;21.80;18.10;;;;;;;1.88;100.00;161063.31;5030396;28;20089;-56
2022/04/19 04:34:35;;;;;;;27.30;20.23;;;;;;;1.87;100.00;161060.63;5031474;28;20079;-56
2022/04/19 04:37:00;;;;;;;25.05;18.23;;;;;;;1.87;100.00;161060.63;5030233;28;20041;-56
2022/04/19 04:39:26;;;;;;;21.48;17.52;;;;;;;1.85;100.00;161055.25;5031258;28;20038;-56
2022/04/19 04:41:51;;;;;;;20.90;16.10;;;;;;;1.87;100.00;161060.63;5028903;28;20524;-56
2022/04/19 04:44:16;;;;;;;26.17;17.95;;;;;;;1.86;100.00;161057.94;5031575;28;20058;-56
2022/04/19 04:49:36;;;;;;;21.27;17.13;;;;;;;1.89;100.00;161066.00;5031299;28;20036;-56
2022/04/19 04:52:07;;;;;;;29.40;16.88;;;;;;;1.90;100.00;161068.66;5030286;28;20095;-55
2022/04/19 04:54:34;;;;;;;19.58;15.80;;;;;;;1.88;100.00;161061.94;5022625;28;20029;-55
2022/04/19 04:56:59;;;;;;;21.75;17.52;;;;;;;1.92;100.00;161071.34;5018381;28;20044;-55
2022/04/19 04:59:24;;;;;;;15.27;13.70;;;;;;;1.86;100.00;161057.94;5021200;28;20017;-56
2022/04/19 05:01:50;;;;;;;18.48;15.93;;;;;;;1.87;100.00;161059.25;5019694;28;20050;-56
2022/04/19 05:04:15;;;;;;;22.23;17.42;;;;;;;1.91;100.00;161070.03;5019009;28;20409;-56
2022/04/19 05:06:41;;;;;;;23.63;17.35;;;;;;;1.94;100.00;161078.03;5020355;28;20558;-56
2022/04/19 05:09:06;;;;;;;23.90;18.08;;;;;;;1.98;100.00;161088.81;5020850;28;20022;-56
2022/04/19 05:11:31;;;;;;;22.30;18.23;;;;;;;2.08;100.00;161112.97;5018452;28;20044;-56
2022/04/19 05:13:57;;;;;;;24.10;16.75;;;;;;;2.12;100.00;161125.06;5022143;28;20024;-56
2022/04/19 05:16:23;;;;;;;29.52;19.67;;;;;;;2.27;100.00;161162.66;5017637;28;20457;-56
2022/04/19 05:18:48;;;;;;;25.27;19.60;;;;;;;2.35;100.00;161184.06;5013202;28;20033;-55
2022/04/19 05:21:13;;;;;;;24.83;18.65;;;;;;;2.43;100.00;161205.56;5009974;28;20034;-55
2022/04/19 05:23:39;;;;;;;35.70;18.73;;;;;;;2.50;100.00;161224.34;5011065;28;20029;-56
2022/04/19 05:26:04;;;;;;;28.60;19.13;;;;;;;2.62;100.00;161253.91;5009697;28;20034;-55
2022/04/19 05:28:29;;;;;;;29.05;19.15;;;;;;;2.70;100.00;161275.41;5011079;28;20068;-55
2022/04/19 05:30:55;;;;;;;28.50;20.60;;;;;;;2.77;100.00;161294.19;5009897;28;20038;-55
2022/04/19 05:33:20;;;;;;;20.38;17.27;;;;;;;2.84;100.00;161313.00;5010733;28;20156;-56
2022/04/19 05:35:46;;;;;;;21.70;16.95;;;;;;;2.96;100.00;161342.50;5009772;28;20028;-55
2022/04/19 05:38:11;;;;;;;25.92;19.27;;;;;;;3.04;100.00;161364.00;5010112;28;20026;-56
2022/04/19 05:40:39;;;;;;;23.65;16.63;;;;;;;3.17;100.00;161398.91;5010421;28;20022;-54
2022/04/19 05:43:05;;;;;;;50.35;21.05;;;;;;;3.28;100.00;161425.81;5011064;28;20018;-55
2022/04/19 05:45:30;;;;;;;34.53;21.70;;;;;;;3.42;100.00;161462.09;5010982;28;20025;-56
2022/04/19 05:47:55;;;;;;;29.80;19.30;;;;;;;3.49;100.00;161480.91;5009459;28;20046;-56
2022/04/19 05:50:21;;;;;;;31.23;19.48;;;;;;;3.65;100.00;161522.53;5015705;28;20481;-55
2022/04/19 05:52:46;;;;;;;27.50;20.55;;;;;;;3.80;100.00;161562.84;5018887;28;20045;-55
2022/04/19 05:55:11;;;;;;;35.70;20.17;;;;;;;3.99;100.00;161611.19;5019609;28;20030;-55
2022/04/19 05:57:37;;;;;;;26.80;20.30;;;;;;;4.23;100.00;161673.03;5019679;28;20045;-55
2022/04/19 06:00:03;;;;;;;33.22;20.73;;;;;;;4.43;100.00;161726.78;5019612;28;20517;-55
2022/04/19 06:05:12;;;;;;;28.45;19.60;;;;;;;4.96;100.00;161862.63;5021092;28;20037;-55
2022/04/19 06:07:48;;;;;;;24.33;19.77;;;;;;;5.21;100.00;161928.50;5017680;28;20042;-55
2022/04/19 06:10:14;;;;;;;23.35;16.08;;;;;;;5.50;100.00;162003.81;5014071;28;20503;-55
2022/04/19 06:12:41;;;;;;;19.85;14.77;;;;;;;5.79;100.00;162079.16;5008937;28;20045;-55
2022/04/19 06:15:07;;;;;;;20.40;15.38;;;;;;;6.06;100.00;162149.22;5012380;28;20033;-55
2022/04/19 06:17:35;;;;;;;19.10;15.20;;;;;;;6.38;100.00;162232.63;5012457;28;20050;-55
2022/04/19 06:20:01;;;;;;;22.63;14.95;;;;;;;6.67;100.00;162310.72;5014488;28;20097;-55
2022/04/19 06:22:26;;;;;;;21.35;15.95;;;;;;;6.99;100.00;162392.91;5012730;28;20096;-55
2022/04/19 06:24:51;;;;;;;18.90;14.38;;;;;;;7.29;100.00;162472.34;5012687;28;20030;-52
2022/04/19 06:27:17;;;;;;;22.80;15.00;;;;;;;7.58;100.00;162547.75;5013076;28;20041;-53
2022/04/19 06:29:42;;;;;;;21.10;15.45;;;;;;;7.83;100.00;162611.06;5014467;28;20022;-53
2022/04/19 06:32:08;;;;;;;20.23;14.38;;;;;;;8.07;100.00;162674.44;5012584;28;20116;-61
2022/04/19 06:34:33;;;;;;;19.90;12.20;;;;;;;8.36;100.00;162751.25;5013506;28;20049;-58
2022/04/19 06:36:58;;;;;;;15.88;12.68;;;;;;;8.61;100.00;162816.00;5012602;28;20099;-57
2022/04/19 06:39:24;;;;;;;22.38;14.20;;;;;;;8.85;100.00;162879.38;5014019;28;20029;-58
2022/04/19 06:41:50;;;;;;;17.83;12.50;;;;;;;9.07;100.00;162936.00;5012470;28;20505;-58
2022/04/19 06:44:16;;;;;;;14.25;10.75;;;;;;;9.36;100.00;163011.50;5013451;28;20384;-59
2022/04/19 06:46:47;;;;;;;21.80;13.48;;;;;;;9.59;100.00;163070.84;5012515;28;20026;-58
2022/04/19 06:49:12;;;;;;;17.77;11.90;;;;;;;9.86;100.00;163142.38;5014313;28;20029;-58
2022/04/19 06:51:38;;;;;;;15.77;9.98;;;;;;;10.09;100.00;163203.06;5012615;28;20041;-59
2022/04/19 06:54:03;;;;;;;22.42;10.18;;;;;;;10.36;100.00;163273.25;5014077;28;20026;-56
2022/04/19 06:56:29;;;;;;;14.70;10.73;;;;;;;10.55;100.00;163321.88;5011893;28;20053;-56
2022/04/19 06:58:56;;;;;;;16.25;11.63;;;;;;;10.73;100.00;163370.50;5014031;28;20029;-56
2022/04/19 07:01:23;;;;;;;11.95;9.85;;;;;;;10.99;100.00;163437.97;5012183;28;20038;-56
2022/04/19 07:03:49;;;;;;;14.20;10.27;;;;;;;11.25;100.00;163505.50;5013353;28;20026;-56
2022/04/19 07:06:14;;;;;;;18.73;11.40;;;;;;;11.89;100.00;163672.97;5011627;28;20034;-56
2022/04/19 07:08:39;;;;;;;15.65;11.18;;;;;;;12.54;100.00;163844.63;5013586;28;20037;-56
2022/04/19 07:11:05;;;;;;;15.35;10.30;;;;;;;14.11;100.00;164254.38;5012129;28;20096;-56
2022/04/19 07:13:30;;;;;;;12.43;10.00;;;;;;;15.75;100.00;164683.41;5013234;28;20026;-56
2022/04/19 07:15:55;;;;;;;12.70;9.10;;;;;;;17.43;100.00;165126.47;5012149;28;20018;-56
2022/04/19 07:18:24;;;;;;;12.57;9.27;;;;;;;18.41;86.21;165381.38;5011732;28;20069;-56
2022/04/19 07:26:38;;;;;;;12.93;10.10;;;;;;;20.42;66.93;165910.63;5011139;28;20088;-56
2022/04/19 07:29:07;;;;;;;11.13;8.70;;;;;;;21.63;63.41;166228.47;5012740;28;20025;-56
2022/04/19 07:31:34;;;;;;;13.82;9.60;;;;;;;21.68;56.80;166242.03;5010949;28;20049;-56
2022/04/19 07:34:00;;;;;;;12.25;10.45;;;;;;;21.81;54.32;166276.00;5013055;28;20021;-57
2022/04/19 07:36:25;;;;;;;13.40;9.55;;;;;;;21.53;56.02;166203.94;5010803;28;20516;-56
2022/04/19 07:38:51;;;;;;;10.70;8.80;;;;;;;21.30;55.06;166142.81;5012234;28;20037;-56
2022/04/19 07:41:17;;;;;;;12.55;9.23;;;;;;;21.91;50.89;166303.16;5018476;28;20041;-56
2022/04/19 07:43:44;;;;;;;9.55;8.52;;;;;;;21.07;50.82;166081.72;5032408;28;20116;-56
2022/04/19 07:46:11;;;;;;;19.67;9.43;;;;;;;20.75;51.61;165997.53;5028934;28;20029;-56
2022/04/19 07:48:37;;;;;;;15.55;9.45;;;;;;;21.23;54.64;166125.19;5017884;28;20026;-56
2022/04/19 07:51:03;;;;;;;9.25;7.22;;;;;;;21.02;51.06;166068.16;5030971;28;20033;-56
2022/04/19 07:53:28;;;;;;;8.93;7.85;;;;;;;20.95;53.58;166049.16;5031800;28;20060;-57
2022/04/19 07:55:57;;;;;;;8.98;6.70;;;;;;;20.84;51.60;166021.97;5030752;28;20427;-57
2022/04/19 07:58:23;;;;;;;10.00;7.93;;;;;;;20.84;50.63;166021.97;5029861;28;20053;-56
2022/04/19 08:00:48;;;;;;;11.48;7.95;;;;;;;21.55;51.00;166209.41;5010950;28;20049;-56
2022/04/19 08:03:14;;;;;;;9.27;7.15;;;;;;;21.46;52.35;166184.94;5012514;28;20022;-56
2022/04/19 08:05:39;;;;;;;9.55;7.90;;;;;;;20.53;47.96;165940.44;5010813;28;20022;-56
2022/04/19 08:08:05;;;;;;;9.48;7.20;;;;;;;20.36;50.35;165895.66;5012684;28;20025;-57
2022/04/19 08:10:30;;;;;;;11.77;6.68;;;;;;;20.10;47.96;165826.44;5012124;28;20121;-56
2022/04/19 08:12:55;;;;;;;8.38;6.97;;;;;;;19.42;47.33;165647.25;5019367;28;20065;-56
2022/04/19 08:15:21;;;;;;;9.95;6.20;;;;;;;19.79;48.72;165746.34;5031934;28;20535;-57
2022/04/19 08:17:46;;;;;;;9.05;6.88;;;;;;;20.08;48.39;165822.38;5030227;28;20046;-57
2022/04/19 08:20:14;;;;;;;8.85;6.68;;;;;;;19.80;48.19;165747.69;5032131;28;20511;-57
2022/04/19 08:22:44;;;;;;;;;;;;;;;20.20;47.76;165853.59;5030615;28;20152;-57
2022/04/19 08:25:10;;;;;;;10.27;6.20;;;;;;;19.99;47.59;165796.59;5031759;28;19966;-56
2022/04/19 08:27:45;;;;;;;10.25;6.78;;;;;;;20.09;49.09;165823.72;5030128;28;20037;-56
2022/04/19 08:30:11;;;;;;;9.95;7.00;;;;;;;20.65;47.62;165970.34;5031930;28;20584;-56
2022/04/19 08:32:36;;;;;;;12.15;7.13;;;;;;;20.78;48.87;166005.69;5029916;28;20040;-56
2022/04/19 08:35:02;;;;;;;11.02;7.35;;;;;;;20.87;47.89;166030.13;5031652;28;20408;-56
2022/04/19 08:37:31;;;;;;;34.90;9.23;;;;;;;20.69;45.05;165982.56;5029847;28;20049;-57
2022/04/19 08:39:57;;;;;;;9.02;7.25;;;;;;;20.40;45.64;165905.16;5031463;28;20404;-56
2022/04/19 08:42:22;;;;;;;16.15;7.90;;;;;;;20.11;48.66;165830.50;5029894;28;20048;-57
2022/04/19 08:44:48;;;;;;;10.05;7.22;;;;;;;20.45;48.13;165918.72;5030874;28;20073;-57
2022/04/19 08:47:14;;;;;;;13.90;8.00;;;;;;;20.87;47.54;166030.13;5029591;28;20037;-56
2022/04/19 08:49:41;;;;;;;9.00;6.63;;;;;;;20.98;47.42;166058.66;5031545;28;20087;-56
2022/04/19 08:52:07;;;;;;;9.75;6.82;;;;;;;21.01;49.28;166066.75;5030224;28;20084;-56
2022/04/19 08:57:29;;;;;;;11.68;7.05;;;;;;;20.36;48.69;165894.34;5029737;28;20624;-57
2022/04/19 08:59:54;;;;;;;10.40;7.43;;;;;;;20.53;47.20;165940.44;5031316;28;20109;-56
2022/04/19 09:02:22;;;;;;;10.20;7.95;;;;;;;20.45;48.33;165918.72;5029364;28;20556;-57
2022/04/19 09:04:48;;;;;;;9.23;7.57;;;;;;;19.19;49.71;165587.56;5031594;28;20060;-57
2022/04/19 09:07:14;;;;;;;10.38;6.82;;;;;;;19.65;55.14;165709.69;5029700;28;20034;-56
2022/04/19 09:09:39;;;;;;;11.38;7.18;;;;;;;19.65;50.15;165708.34;5030692;28;20021;-56
2022/04/19 09:12:12;;;;;;;12.25;6.63;;;;;;;19.39;48.74;165639.16;5025801;28;20049;-57
2022/04/19 09:14:58;;;;;;;10.35;7.88;;;;;;;19.36;49.84;165631.00;5029715;28;20393;-57
2022/04/19 09:17:34;;;;;;;11.05;7.85;;;;;;;18.88;49.78;165506.13;5029257;28;20045;-57
2022/04/19 09:20:22;;;;;;;12.70;6.75;;;;;;;18.12;50.38;165305.47;5030967;28;20108;-57
2022/04/19 09:22:50;;;;;;;9.52;7.30;;;;;;;18.79;51.25;165483.09;5028909;28;20124;-57
2022/04/19 09:25:24;;;;;;;8.27;7.35;;;;;;;19.57;51.98;165686.63;5030975;28;20021;-60
2022/04/19 09:27:50;;;;;;;8.07;6.03;;;;;;;19.17;50.20;165582.19;5029603;28;20049;-57
2022/04/19 09:30:22;;;;;;;12.98;7.28;;;;;;;19.11;49.45;165567.25;5030882;28;20018;-65
2022/04/19 09:33:03;;;;;;;10.02;6.10;;;;;;;19.12;54.10;165568.59;5029836;28;20037;-57
2022/04/19 09:35:33;;;;;;;14.15;6.80;;;;;;;19.14;51.10;165574.03;5026530;28;20029;-56
2022/04/19 09:37:59;;;;;;;10.80;7.72;;;;;;;18.76;52.94;165473.59;5028431;28;20056;-57
2022/04/19 09:40:42;;;;;;;10.30;6.82;;;;;;;19.11;51.98;165565.84;5030773;28;20033;-57
2022/04/19 09:43:20;;;;;;;10.52;6.10;;;;;;;19.62;51.95;165701.53;5009825;28;20624;-56
2022/04/19 09:45:58;;;;;;;8.95;6.63;;;;;;;19.84;54.48;165757.19;5009748;28;20084;-56
2022/04/19 09:48:35;;;;;;;13.35;8.75;;;;;;;20.04;52.87;165810.16;5011282;28;20022;-57
2022/04/19 09:51:04;;;;;;;11.38;7.07;;;;;;;20.58;50.52;165954.06;5028712;28;20031;-56
2022/04/19 09:53:37;;;;;;;14.25;7.75;;;;;;;20.59;48.14;165956.72;5021153;28;20024;-57
2022/04/19 09:56:08;;;;;;;5.93;5.05;;;;;;;21.09;49.49;166087.16;5030465;28;20045;-57
2022/04/19 09:58:34;;;;;;;7.88;5.38;;;;;;;21.38;50.81;166164.53;5034522;28;20105;-56
2022/04/19 10:01:00;;;;;;;5.82;4.85;;;;;;;21.50;50.77;166195.78;5032815;28;20049;-56
2022/04/19 10:08:53;;;;;;;6.10;4.68;;;;;;;21.32;50.94;166146.91;5028213;28;20052;-56
2022/04/19 10:11:19;;;;;;;5.95;4.70;;;;;;;21.14;48.61;166099.38;5011515;28;20038;-56
2022/04/19 10:13:45;;;;;;;5.70;3.65;;;;;;;21.28;49.75;166136.03;5025590;28;20087;-56
2022/04/19 10:16:14;;;;;;;3.88;3.35;;;;;;;21.16;51.45;166104.78;5032455;28;20126;-56
2022/04/19 10:18:41;;;;;;;5.47;3.20;;;;;;;20.77;48.26;166002.97;5018602;28;20072;-56
2022/04/19 10:21:10;;;;;;;11.35;3.80;;;;;;;20.75;53.53;165998.91;5032272;28;20112;-56
2022/04/19 10:23:38;;;;;;;4.28;3.80;;;;;;;21.03;49.18;166072.22;5014020;28;20029;-56
2022/04/19 10:26:22;;;;;;;3.80;3.40;;;;;;;21.83;52.68;166282.78;5014322;28;20071;-56
2022/04/19 10:28:51;;;;;;;4.03;3.10;;;;;;;22.19;49.95;166377.88;5014273;28;20025;-56
2022/04/19 10:31:31;;;;;;;4.15;3.75;;;;;;;22.23;51.58;166386.06;5011740;28;20038;-56
2022/04/19 10:34:02;;;;;;;4.40;3.78;;;;;;;22.03;51.79;166334.38;5014028;28;20385;-56
2022/04/19 10:36:34;;;;;;;5.90;2.72;;;;;;;21.71;48.74;166250.16;5010998;28;20496;-56
2022/04/19 10:39:11;;;;;;;7.05;3.90;;;;;;;21.32;49.81;166146.91;5013345;28;20072;-56
2022/04/19 10:41:56;;;;;;;4.00;3.65;;;;;;;20.93;52.63;166045.03;5010136;28;20072;-57
2022/04/19 10:44:27;;;;;;;5.63;4.95;;;;;;;20.27;49.58;165872.63;5013153;28;20071;-56
2022/04/19 10:47:13;;;;;;;3.95;3.53;;;;;;;20.10;53.28;165826.44;5011358;28;20044;-56
2022/04/19 10:49:51;;;;;;;6.22;4.30;;;;;;;19.94;52.22;165785.72;5013529;28;20040;-57
2022/04/19 10:52:42;;;;;;;4.85;4.25;;;;;;;19.94;53.12;165784.38;5012348;28;20056;-57
2022/04/19 10:55:14;;;;;;;6.47;4.78;;;;;;;19.77;53.74;165739.56;5013864;28;20033;-56
2022/04/19 11:00:41;;;;;;;5.85;5.00;;;;;;;20.88;54.26;166032.84;5031458;28;20475;-56
2022/04/19 11:03:08;;;;;;;8.35;5.97;;;;;;;20.52;51.13;165937.72;5031871;28;20045;-57
2022/04/19 11:05:51;;;;;;;11.25;4.93;;;;;;;19.91;51.95;165776.22;5033126;28;20064;-57
2022/04/19 11:08:31;;;;;;;4.93;4.43;;;;;;;19.76;52.27;165738.19;5012091;28;20421;-56
2022/04/19 11:11:02;;;;;;;5.82;4.65;;;;;;;20.55;54.98;165945.91;5012120;28;20021;-57
2022/04/19 11:14:08;;;;;;;4.60;4.13;;;;;;;20.84;54.04;166021.97;5013162;28;20029;-57
2022/04/19 11:16:37;;;;;;;6.15;4.05;;;;;;;20.96;55.57;166053.22;5019131;28;20046;-57
2022/04/19 11:19:14;;;;;;;7.57;4.57;;;;;;;20.81;58.98;166013.84;5032907;28;20542;-57
2022/04/19 11:21:58;;;;;;;5.63;4.85;;;;;;;20.74;54.80;165994.78;5031088;28;20037;-57
2022/04/19 11:24:59;;;;;;;10.90;4.07;;;;;;;20.18;54.06;165848.16;5033001;28;20025;-57
2022/04/19 11:27:43;;;;;;;5.93;3.17;;;;;;;19.86;55.13;165762.66;5031253;28;20103;-57
2022/04/19 11:30:13;;;;;;;5.05;3.58;;;;;;;19.73;54.75;165728.69;5029439;28;20030;-57
2022/04/19 11:32:38;;;;;;;5.13;3.70;;;;;;;19.51;53.99;165671.69;5028014;28;20041;-57
2022/04/19 11:35:04;;;;;;;5.45;2.38;;;;;;;19.45;53.25;165655.44;5032971;28;20071;-56
2022/04/19 11:37:30;;;;;;;2.10;1.90;;;;;;;19.26;52.72;165606.56;5030683;28;20041;-57
2022/04/19 11:48:26;;;;;;;4.70;2.65;;;;;;;18.45;46.60;165392.22;5025085;28;20047;-57
2022/04/19 11:50:52;;;;;;;7.72;2.70;;;;;;;18.60;47.45;165431.56;5029033;28;20029;-57
2022/04/19 11:53:18;;;;;;;1.35;1.25;;;;;;;18.59;44.40;165430.19;5029506;28;20025;-57
2022/04/19 11:55:51;;;;;;;2.65;1.60;;;;;;;18.33;44.60;165362.41;5030796;28;20037;-57